Time;durP1;ratioP1;P1;durP2;ratioP2;P2;SDS_P1;SDS_P2;PMS_P1;PMS_P2;Temp;Humidity;BMP_temperature;BMP_pressure;BME280_temperature;BME280_humidity;BME280_pressure;Samples;Min_cycle;Max_cycle;Signal;HPM_P1;HPM_P2
2023/05/20 00:00:24;;;;;;;5.32;2.28;;;11.80;99.90;;;;;;5093557;28;20278;-49
2023/05/20 00:02:50;;;;;;;7.78;2.63;;;11.80;99.90;;;;;;5093360;28;20518;-52
2023/05/20 00:05:15;;;;;;;7.30;2.50;;;11.80;99.90;;;;;;5093658;28;20050;-52
2023/05/20 00:07:44;;;;;;;6.85;2.22;;;11.70;99.90;;;;;;5093639;28;20047;-50
2023/05/20 00:10:10;;;;;;;5.70;3.10;;;11.80;99.90;;;;;;5093892;28;20048;-50
2023/05/20 00:12:37;;;;;;;5.75;1.80;;;11.80;99.90;;;;;;5093607;28;20376;-49
2023/05/20 00:15:04;;;;;;;5.72;2.05;;;11.80;99.90;;;;;;5093350;28;20090;-51
2023/05/20 00:17:30;;;;;;;4.97;1.77;;;11.80;99.90;;;;;;5093248;28;20132;-50
2023/05/20 00:19:55;;;;;;;6.10;2.20;;;11.80;99.90;;;;;;5093510;28;20126;-51
2023/05/20 00:22:21;;;;;;;4.80;1.77;;;11.70;99.90;;;;;;5093498;28;20074;-51
2023/05/20 00:24:47;;;;;;;4.97;2.00;;;11.70;99.90;;;;;;5093868;28;20040;-50
2023/05/20 00:27:12;;;;;;;9.87;2.23;;;11.70;99.90;;;;;;5093393;28;20040;-48
2023/05/20 00:29:38;;;;;;;4.83;2.30;;;11.70;99.90;;;;;;5093425;28;20376;-48
2023/05/20 00:32:04;;;;;;;4.73;2.20;;;11.70;99.90;;;;;;5093194;28;20402;-49
2023/05/20 00:34:30;;;;;;;4.90;2.40;;;11.60;99.90;;;;;;5093392;28;20052;-50
2023/05/20 00:36:55;;;;;;;6.10;2.13;;;11.60;99.90;;;;;;5094930;28;20048;-49
2023/05/20 00:39:21;;;;;;;4.80;1.93;;;11.60;99.90;;;;;;5096979;28;20502;-49
2023/05/20 00:41:47;;;;;;;5.43;2.00;;;11.50;99.90;;;;;;5097370;28;20454;-50
2023/05/20 00:44:12;;;;;;;6.00;2.37;;;11.60;99.90;;;;;;5097016;28;20286;-50
2023/05/20 00:46:38;;;;;;;5.47;2.30;;;11.50;99.90;;;;;;5095973;28;20182;-50
2023/05/20 00:49:05;;;;;;;5.47;2.13;;;11.50;99.90;;;;;;5096800;28;20096;-50
2023/05/20 00:51:31;;;;;;;6.30;2.08;;;11.50;99.90;;;;;;5097275;28;20040;-50
2023/05/20 00:53:57;;;;;;;7.45;2.33;;;11.50;99.90;;;;;;5096982;28;20048;-49
2023/05/20 00:56:23;;;;;;;5.45;2.20;;;11.50;99.90;;;;;;5096749;28;20039;-49
2023/05/20 00:58:50;;;;;;;4.32;1.83;;;11.50;99.90;;;;;;5096902;28;20119;-51
2023/05/20 01:01:15;;;;;;;4.65;2.15;;;11.40;99.90;;;;;;5096528;28;20054;-49
2023/05/20 01:03:41;;;;;;;6.47;2.27;;;11.50;99.90;;;;;;5096757;28;20040;-49
2023/05/20 01:06:07;;;;;;;5.73;2.10;;;11.50;99.90;;;;;;5097058;28;20040;-50
2023/05/20 01:08:33;;;;;;;4.20;1.80;;;11.40;99.90;;;;;;5096626;28;20051;-49
2023/05/20 01:11:10;;;;;;;7.95;2.40;;;11.40;99.90;;;;;;5096755;28;20067;-51
2023/05/20 01:13:45;;;;;;;5.82;2.58;;;11.40;99.90;;;;;;5096399;28;20050;-49
2023/05/20 01:16:14;;;;;;;5.15;1.98;;;11.40;99.90;;;;;;5095473;28;20046;-48
2023/05/20 01:18:42;;;;;;;4.47;2.10;;;11.40;99.90;;;;;;5096886;28;20048;-52
2023/05/20 01:21:11;;;;;;;6.90;1.90;;;11.40;99.90;;;;;;5095127;28;20478;-50
2023/05/20 01:23:41;;;;;;;5.43;1.95;;;11.40;99.90;;;;;;5096292;28;20048;-52
2023/05/20 01:26:07;;;;;;;5.25;2.33;;;11.30;99.90;;;;;;5096287;28;20040;-50
2023/05/20 01:28:35;;;;;;;;;;;11.30;99.90;;;;;;5096548;28;20430;-52
2023/05/20 01:31:04;;;;;;;7.07;2.33;;;11.30;99.90;;;;;;5096348;28;19920;-51
2023/05/20 01:33:30;;;;;;;5.38;2.05;;;11.30;99.90;;;;;;5096219;28;20040;-51
2023/05/20 01:35:58;;;;;;;6.97;2.33;;;11.30;99.90;;;;;;5096031;28;20491;-52
2023/05/20 01:38:24;;;;;;;3.80;1.60;;;11.30;99.90;;;;;;5095945;28;20119;-53
2023/05/20 01:40:52;;;;;;;4.72;1.90;;;11.30;99.90;;;;;;5095729;28;20063;-52
2023/05/20 01:43:18;;;;;;;4.57;1.95;;;11.30;99.90;;;;;;5096374;28;20096;-52
2023/05/20 01:45:43;;;;;;;4.03;1.80;;;11.20;99.90;;;;;;5095974;28;20040;-53
2023/05/20 01:48:10;;;;;;;3.83;1.63;;;11.20;99.90;;;;;;5095098;28;20197;-50
2023/05/20 01:50:36;;;;;;;;;;;11.20;99.90;;;;;;5096150;28;20453;-52
2023/05/20 01:53:02;;;;;;;4.32;2.03;;;11.20;99.90;;;;;;5094386;28;19927;-52
2023/05/20 01:55:27;;;;;;;5.67;2.30;;;11.20;99.90;;;;;;5095534;28;20051;-52
2023/05/20 01:57:53;;;;;;;6.10;2.10;;;11.10;99.90;;;;;;5095779;28;20044;-51
2023/05/20 02:00:19;;;;;;;4.47;1.87;;;11.10;99.90;;;;;;5077860;28;20052;-52
2023/05/20 02:02:44;;;;;;;4.67;1.83;;;11.10;99.90;;;;;;5095596;28;20048;-52
2023/05/20 02:05:10;;;;;;;4.90;2.03;;;11.10;99.90;;;;;;5095545;28;20056;-49
2023/05/20 02:07:36;;;;;;;4.53;2.17;;;11.10;99.90;;;;;;5095391;28;20048;-48
2023/05/20 02:10:01;;;;;;;5.80;2.00;;;11.10;99.90;;;;;;5095335;28;20514;-52
2023/05/20 02:12:27;;;;;;;6.03;2.13;;;11.10;99.90;;;;;;5095709;28;20074;-49
2023/05/20 02:14:53;;;;;;;5.60;2.43;;;11.00;99.90;;;;;;5095385;28;20450;-52
2023/05/20 02:17:19;;;;;;;3.50;1.50;;;11.00;99.90;;;;;;5095307;28;20066;-49
2023/05/20 02:19:45;;;;;;;6.73;1.97;;;11.00;99.90;;;;;;5094316;28;20550;-49
2023/05/20 02:22:12;;;;;;;5.57;1.85;;;11.00;99.90;;;;;;5095222;28;20101;-51
2023/05/20 02:24:37;;;;;;;4.47;1.80;;;11.00;99.90;;;;;;5095058;28;20051;-49
2023/05/20 02:27:05;;;;;;;5.93;1.90;;;11.00;99.90;;;;;;5095172;28;20040;-49
2023/05/20 02:29:31;;;;;;;5.10;1.80;;;11.00;99.90;;;;;;5095602;28;20286;-50
2023/05/20 02:31:57;;;;;;;6.20;1.77;;;11.00;99.90;;;;;;5095383;28;20048;-48
2023/05/20 02:34:24;;;;;;;4.38;1.75;;;11.00;99.90;;;;;;5095151;28;20048;-48
2023/05/20 02:36:51;;;;;;;4.80;1.77;;;11.00;99.90;;;;;;5094887;28;20118;-49
2023/05/20 02:39:17;;;;;;;5.15;1.45;;;11.00;99.90;;;;;;5094551;28;20054;-51
2023/05/20 02:41:42;;;;;;;6.97;1.97;;;11.00;99.90;;;;;;5095025;28;20052;-50
2023/05/20 02:44:08;;;;;;;4.80;1.70;;;10.90;99.90;;;;;;5094910;28;20127;-49
2023/05/20 02:46:34;;;;;;;6.23;1.73;;;11.00;99.90;;;;;;5094824;28;20036;-49
2023/05/20 02:49:00;;;;;;;4.40;1.42;;;11.00;99.90;;;;;;5093766;28;20052;-49
2023/05/20 02:51:26;;;;;;;4.77;1.73;;;10.90;99.90;;;;;;5094772;28;20384;-50
2023/05/20 02:53:51;;;;;;;5.20;1.67;;;11.00;99.90;;;;;;5094631;28;20080;-49
2023/05/20 02:56:20;;;;;;;3.20;1.47;;;11.00;99.90;;;;;;5094616;28;20047;-48
2023/05/20 02:58:46;;;;;;;3.08;1.30;;;10.90;99.90;;;;;;5094136;28;20098;-50
2023/05/20 03:01:12;;;;;;;4.88;1.65;;;10.90;99.90;;;;;;5093033;28;20495;-52
2023/05/20 03:03:39;;;;;;;3.47;1.50;;;10.90;99.90;;;;;;5093380;28;20079;-49
2023/05/20 03:06:05;;;;;;;5.03;1.30;;;10.90;99.90;;;;;;5094420;28;20753;-49
2023/05/20 03:08:33;;;;;;;4.38;1.60;;;10.90;99.90;;;;;;5094155;28;20052;-48
2023/05/20 03:10:59;;;;;;;4.50;1.33;;;10.90;99.90;;;;;;5093248;28;20058;-52
2023/05/20 03:13:25;;;;;;;3.55;1.33;;;10.90;99.90;;;;;;5093395;28;20059;-50
2023/05/20 03:15:50;;;;;;;3.27;1.43;;;10.90;99.90;;;;;;5094318;28;20403;-48
2023/05/20 03:18:16;;;;;;;4.27;1.27;;;10.80;99.90;;;;;;5094247;28;20277;-49
2023/05/20 03:20:42;;;;;;;3.13;1.10;;;10.80;99.90;;;;;;5094098;28;20277;-48
2023/05/20 03:23:08;;;;;;;3.17;1.17;;;10.80;99.90;;;;;;5094151;28;20045;-49
2023/05/20 03:25:35;;;;;;;3.80;1.10;;;10.80;99.90;;;;;;5094961;28;20625;-49
2023/05/20 03:28:01;;;;;;;3.17;1.20;;;10.80;99.90;;;;;;5094078;28;20538;-50
2023/05/20 03:30:27;;;;;;;2.53;1.02;;;10.80;99.90;;;;;;5093073;28;20143;-50
2023/05/20 03:32:53;;;;;;;6.57;1.45;;;10.80;99.90;;;;;;5094297;28;20044;-49
2023/05/20 03:35:18;;;;;;;4.70;1.02;;;10.80;99.90;;;;;;5093918;28;20094;-49
2023/05/20 03:37:44;;;;;;;5.27;1.63;;;10.80;99.90;;;;;;5093627;28;20048;-49
2023/05/20 03:40:10;;;;;;;3.27;1.10;;;10.80;99.90;;;;;;5094053;28;20056;-50
2023/05/20 03:42:37;;;;;;;3.22;1.23;;;10.80;99.90;;;;;;5093751;28;20051;-48
2023/05/20 03:45:03;;;;;;;3.17;1.10;;;10.80;99.90;;;;;;5093783;28;20052;-48
2023/05/20 03:47:29;;;;;;;3.65;1.00;;;10.80;99.90;;;;;;5093954;28;20040;-52
2023/05/20 03:49:54;;;;;;;4.13;0.93;;;10.80;99.90;;;;;;5092692;28;20441;-48
2023/05/20 03:52:20;;;;;;;3.90;1.00;;;10.90;99.90;;;;;;5093639;28;20047;-52
2023/05/20 03:54:46;;;;;;;2.57;0.80;;;10.90;99.90;;;;;;5093826;28;20044;-52
2023/05/20 03:57:12;;;;;;;2.50;1.00;;;10.90;99.90;;;;;;5092506;28;20036;-51
2023/05/20 03:59:37;;;;;;;1.27;0.70;;;11.00;99.90;;;;;;5093692;28;20048;-49
2023/05/20 04:02:05;;;;;;;2.93;1.00;;;11.00;99.90;;;;;;5093654;28;20055;-49
2023/05/20 04:04:31;;;;;;;2.83;0.90;;;11.00;99.90;;;;;;5093589;28;20310;-50
2023/05/20 04:06:59;;;;;;;2.67;1.08;;;11.00;99.90;;;;;;5093501;28;20051;-49
2023/05/20 04:09:26;;;;;;;2.17;0.85;;;11.10;99.90;;;;;;5093629;28;20052;-50
2023/05/20 04:11:51;;;;;;;3.28;1.25;;;11.10;99.90;;;;;;5096232;28;20492;-48
2023/05/20 04:14:17;;;;;;;2.05;0.90;;;11.10;99.90;;;;;;5096803;28;20044;-50
2023/05/20 04:16:44;;;;;;;1.70;0.70;;;11.20;99.90;;;;;;5097711;28;20055;-48
2023/05/20 04:19:11;;;;;;;2.83;1.00;;;11.20;99.90;;;;;;5097497;28;20499;-48
2023/05/20 04:21:37;;;;;;;6.43;0.90;;;11.20;99.90;;;;;;5097907;28;20106;-50
2023/05/20 04:24:03;;;;;;;3.65;0.90;;;11.20;99.90;;;;;;5097987;28;20131;-49
2023/05/20 04:26:29;;;;;;;2.60;0.90;;;11.20;99.90;;;;;;5097984;28;20126;-49
2023/05/20 04:28:57;;;;;;;2.53;0.70;;;11.20;99.90;;;;;;5097509;28;20546;-48
2023/05/20 04:31:25;;;;;;;1.77;0.70;;;11.20;99.90;;;;;;5096642;28;20084;-51
2023/05/20 04:33:54;;;;;;;2.05;0.70;;;11.20;99.90;;;;;;5097375;28;20394;-51
2023/05/20 04:36:20;;;;;;;1.70;0.60;;;11.20;99.90;;;;;;5097255;28;20104;-48
2023/05/20 04:38:47;;;;;;;;;;;11.20;99.90;;;;;;5097697;28;20063;-48
2023/05/20 04:41:14;;;;;;;2.83;0.73;;;11.20;99.90;;;;;;5097202;28;20007;-49
2023/05/20 04:43:40;;;;;;;3.95;0.80;;;11.20;99.90;;;;;;5097276;28;20071;-48
2023/05/20 04:46:06;;;;;;;1.73;0.65;;;11.10;99.90;;;;;;5097139;28;20510;-49
2023/05/20 04:48:32;;;;;;;1.93;0.77;;;11.10;99.90;;;;;;5097034;28;20121;-49
2023/05/20 04:50:58;;;;;;;2.65;0.80;;;11.10;99.90;;;;;;5096923;28;20494;-52
2023/05/20 04:53:24;;;;;;;1.48;0.60;;;11.10;99.90;;;;;;5096141;28;20085;-51
2023/05/20 04:55:55;;;;;;;1.50;0.60;;;11.10;99.90;;;;;;5096927;28;20044;-52
2023/05/20 04:58:23;;;;;;;2.08;0.80;;;11.10;99.90;;;;;;5096789;28;20048;-52
2023/05/20 05:00:49;;;;;;;1.38;0.45;;;11.20;99.90;;;;;;5096739;28;20044;-51
2023/05/20 05:03:15;;;;;;;1.73;0.75;;;11.20;99.90;;;;;;5096681;28;20109;-50
2023/05/20 05:05:41;;;;;;;2.30;0.73;;;11.30;99.90;;;;;;5097008;28;20445;-49
2023/05/20 05:08:08;;;;;;;2.03;0.70;;;11.30;99.90;;;;;;5096664;28;20047;-49
2023/05/20 05:10:34;;;;;;;1.77;0.70;;;11.30;99.90;;;;;;5096584;28;20274;-48
2023/05/20 05:13:00;;;;;;;;;;;11.40;99.90;;;;;;5096919;28;20047;-49
2023/05/20 05:15:26;;;;;;;1.95;0.60;;;11.40;99.90;;;;;;5096467;28;20371;-48
2023/05/20 05:17:52;;;;;;;3.05;0.70;;;11.60;99.90;;;;;;5096418;28;20047;-47
2023/05/20 05:20:18;;;;;;;1.73;0.70;;;11.70;99.90;;;;;;5096406;28;20088;-49
2023/05/20 05:22:44;;;;;;;1.60;0.60;;;11.90;99.90;;;;;;5095373;28;20083;-47
2023/05/20 05:25:10;;;;;;;2.78;0.70;;;12.10;99.90;;;;;;5096325;28;20105;-47
2023/05/20 05:27:36;;;;;;;1.85;0.63;;;12.20;99.90;;;;;;5096173;28;20495;-49
2023/05/20 05:30:03;;;;;;;1.85;0.60;;;12.40;99.90;;;;;;5096225;28;20130;-51
2023/05/20 05:32:29;;;;;;;2.22;0.40;;;12.40;99.90;;;;;;5096221;28;20056;-48
2023/05/20 05:34:54;;;;;;;1.60;0.57;;;12.60;99.90;;;;;;5095340;28;20097;-49
2023/05/20 05:37:20;;;;;;;1.47;0.50;;;12.80;99.90;;;;;;5096106;28;20089;-48
2023/05/20 05:39:46;;;;;;;3.17;0.90;;;13.00;99.90;;;;;;5096038;28;20097;-48
2023/05/20 05:42:12;;;;;;;2.13;0.68;;;13.10;99.90;;;;;;5095834;28;20818;-49
2023/05/20 05:44:38;;;;;;;2.03;0.60;;;13.10;99.90;;;;;;5096020;28;20102;-48
2023/05/20 05:47:04;;;;;;;1.13;0.50;;;13.20;99.90;;;;;;5095730;28;20343;-47
2023/05/20 05:49:30;;;;;;;1.63;0.63;;;13.20;99.90;;;;;;5096341;28;20098;-48
2023/05/20 05:51:56;;;;;;;2.20;0.60;;;13.30;99.90;;;;;;5095849;28;20055;-48
2023/05/20 05:54:21;;;;;;;1.10;0.47;;;13.40;99.90;;;;;;5095906;28;20049;-47
2023/05/20 05:56:47;;;;;;;2.77;0.70;;;13.50;99.90;;;;;;5095634;28;20083;-49
2023/05/20 05:59:14;;;;;;;1.57;1.23;;;13.50;99.90;;;;;;5095856;28;20058;-47
2023/05/20 06:01:40;;;;;;;2.40;0.70;;;13.50;99.90;;;;;;5095392;28;20944;-49
2023/05/20 06:04:06;;;;;;;1.67;0.60;;;13.60;99.90;;;;;;5094660;28;20154;-48
2023/05/20 06:06:33;;;;;;;0.90;0.40;;;13.80;99.90;;;;;;5095597;28;20047;-47
2023/05/20 06:08:58;;;;;;;1.35;0.55;;;13.90;99.90;;;;;;5095627;28;20044;-47
2023/05/20 06:11:25;;;;;;;0.77;0.30;;;14.00;99.90;;;;;;5095389;28;20044;-48
2023/05/20 06:13:51;;;;;;;;;;;14.00;99.90;;;;;;5096026;28;20048;-49
2023/05/20 06:16:17;;;;;;;1.13;0.40;;;14.00;99.90;;;;;;5095073;28;19974;-48
2023/05/20 06:18:44;;;;;;;2.22;0.60;;;14.00;99.90;;;;;;5095130;28;20529;-50
2023/05/20 06:21:10;;;;;;;1.70;0.50;;;14.00;99.90;;;;;;5095580;28;20394;-47
2023/05/20 06:23:36;;;;;;;4.50;0.85;;;14.10;99.90;;;;;;5095259;28;20052;-49
2023/05/20 06:26:01;;;;;;;1.60;0.60;;;14.10;99.90;;;;;;5095183;28;20039;-50
2023/05/20 06:28:28;;;;;;;1.23;0.50;;;14.10;99.90;;;;;;5094901;28;20110;-48
2023/05/20 06:30:54;;;;;;;1.25;0.40;;;14.20;99.90;;;;;;5095268;28;20493;-47
2023/05/20 06:33:24;;;;;;;2.63;0.82;;;14.10;99.90;;;;;;5094953;28;20131;-51
2023/05/20 06:35:51;;;;;;;3.17;0.60;;;14.20;99.90;;;;;;5095053;28;20124;-49
2023/05/20 06:38:18;;;;;;;2.28;0.60;;;14.20;99.90;;;;;;5094841;28;20052;-50
2023/05/20 06:40:44;;;;;;;1.42;0.57;;;14.20;99.90;;;;;;5094667;28;20105;-48
2023/05/20 06:43:09;;;;;;;2.47;0.77;;;14.20;99.90;;;;;;5094737;28;20056;-47
2023/05/20 06:45:35;;;;;;;1.40;0.47;;;14.20;99.90;;;;;;5094623;28;20288;-49
2023/05/20 06:48:01;;;;;;;2.47;0.70;;;14.30;99.90;;;;;;5093837;28;20044;-47
2023/05/20 06:50:27;;;;;;;1.87;0.60;;;14.40;99.90;;;;;;5094954;28;20083;-52
2023/05/20 06:52:53;;;;;;;1.40;0.55;;;14.40;99.90;;;;;;5094690;28;20048;-49
2023/05/20 06:55:19;;;;;;;1.50;0.40;;;14.50;99.90;;;;;;5093825;28;20047;-50
2023/05/20 06:57:45;;;;;;;1.73;0.60;;;14.60;99.90;;;;;;5094436;28;20047;-49
2023/05/20 07:00:12;;;;;;;1.67;0.50;;;14.60;99.90;;;;;;5094576;28;20044;-47
2023/05/20 07:02:38;;;;;;;1.85;0.80;;;14.60;99.90;;;;;;5094515;28;20052;-49
2023/05/20 07:05:04;;;;;;;2.00;0.60;;;14.70;99.90;;;;;;5094838;28;20052;-48
2023/05/20 07:07:30;;;;;;;2.15;0.52;;;14.80;99.90;;;;;;5094471;28;20044;-52
2023/05/20 07:09:57;;;;;;;1.43;0.60;;;14.90;99.90;;;;;;5093206;28;20070;-48
2023/05/20 07:12:23;;;;;;;1.42;0.50;;;15.10;99.90;;;;;;5094148;28;20727;-48
2023/05/20 07:14:48;;;;;;;1.55;0.65;;;15.20;99.90;;;;;;5094365;28;20056;-48
2023/05/20 07:17:14;;;;;;;2.15;0.60;;;15.30;99.90;;;;;;5094169;28;20086;-49
2023/05/20 07:19:40;;;;;;;1.50;0.63;;;15.40;99.90;;;;;;5094269;28;20048;-53
2023/05/20 07:22:06;;;;;;;1.30;0.50;;;15.50;99.90;;;;;;5094167;28;20052;-51
2023/05/20 07:24:31;;;;;;;2.28;0.60;;;15.50;99.90;;;;;;5094233;28;20050;-49
2023/05/20 07:26:57;;;;;;;1.13;0.53;;;15.50;99.90;;;;;;5093987;28;20043;-49
2023/05/20 07:29:23;;;;;;;1.80;0.65;;;15.40;99.90;;;;;;5093980;28;20126;-49
2023/05/20 07:31:48;;;;;;;1.53;0.60;;;15.30;99.90;;;;;;5094208;28;20097;-54
2023/05/20 07:34:14;;;;;;;1.60;0.60;;;15.30;99.90;;;;;;5094196;28;20317;-48
2023/05/20 07:36:40;;;;;;;1.58;0.70;;;15.20;99.90;;;;;;5093804;28;20047;-51
2023/05/20 07:39:07;;;;;;;1.63;0.60;;;15.20;99.90;;;;;;5093949;28;20123;-52
2023/05/20 07:41:33;;;;;;;2.17;0.70;;;15.20;99.90;;;;;;5093760;28;20056;-49
2023/05/20 07:44:00;;;;;;;1.67;0.68;;;15.20;99.90;;;;;;5093967;28;20395;-50
2023/05/20 07:46:26;;;;;;;2.17;0.73;;;15.20;99.90;;;;;;5093212;28;20044;-49
2023/05/20 07:48:52;;;;;;;1.67;0.60;;;15.20;99.90;;;;;;5093838;28;20042;-53
2023/05/20 07:51:17;;;;;;;3.27;0.70;;;15.20;99.90;;;;;;5093750;28;20105;-53
2023/05/20 07:53:43;;;;;;;1.53;0.63;;;15.20;99.90;;;;;;5093801;28;20106;-53
2023/05/20 07:56:09;;;;;;;1.57;0.63;;;15.20;99.90;;;;;;5093590;28;20310;-51
2023/05/20 07:58:34;;;;;;;1.40;0.50;;;15.30;99.90;;;;;;5093762;28;20050;-52
2023/05/20 08:01:00;;;;;;;2.40;0.60;;;15.40;99.90;;;;;;5093735;28;20278;-50
2023/05/20 08:03:26;;;;;;;2.55;0.90;;;15.40;99.90;;;;;;5093914;28;20297;-50
2023/05/20 08:05:52;;;;;;;1.85;0.60;;;15.50;99.90;;;;;;5093677;28;20127;-51
2023/05/20 08:08:18;;;;;;;1.45;0.52;;;15.50;99.90;;;;;;5093705;28;20040;-49
2023/05/20 08:10:43;;;;;;;1.80;0.60;;;15.50;99.90;;;;;;5093624;28;20082;-48
2023/05/20 08:13:09;;;;;;;3.58;0.65;;;15.50;99.90;;;;;;5093654;28;20048;-48
2023/05/20 08:15:35;;;;;;;1.65;0.50;;;15.60;99.90;;;;;;5093388;28;20109;-48
2023/05/20 08:18:01;;;;;;;1.67;0.63;;;15.60;99.90;;;;;;5093751;28;20086;-48
2023/05/20 08:20:28;;;;;;;1.55;0.55;;;15.60;99.90;;;;;;5093437;28;20479;-49
2023/05/20 08:22:54;;;;;;;2.88;0.93;;;15.70;99.90;;;;;;5093764;28;20059;-47
2023/05/20 08:25:20;;;;;;;1.95;0.60;;;15.70;99.90;;;;;;5093497;28;20052;-49
2023/05/20 08:27:45;;;;;;;1.70;0.77;;;15.70;99.90;;;;;;5093256;28;20036;-49
2023/05/20 08:30:11;;;;;;;2.60;0.50;;;15.70;99.90;;;;;;5092648;28;20040;-48
2023/05/20 08:32:37;;;;;;;2.45;0.60;;;15.80;99.90;;;;;;5093420;28;20108;-49
2023/05/20 08:35:03;;;;;;;1.20;0.57;;;15.80;99.90;;;;;;5093255;28;20479;-49
2023/05/20 08:37:29;;;;;;;2.22;0.70;;;15.90;99.90;;;;;;5093024;28;20518;-48
2023/05/20 08:39:55;;;;;;;1.80;0.57;;;16.00;99.90;;;;;;5093230;28;20102;-48
2023/05/20 08:42:25;;;;;;;0.85;0.45;;;16.00;99.90;;;;;;5093213;28;20055;-49
2023/05/20 08:44:52;;;;;;;1.20;0.50;;;16.00;99.90;;;;;;5093505;28;20047;-48
2023/05/20 08:47:21;;;;;;;2.10;0.60;;;16.00;99.90;;;;;;5091853;28;20506;-55
2023/05/20 08:49:48;;;;;;;1.98;0.57;;;16.00;99.90;;;;;;5093188;28;20050;-53
2023/05/20 08:52:16;;;;;;;1.65;0.55;;;16.00;99.90;;;;;;5093281;28;20052;-52
2023/05/20 08:54:45;;;;;;;1.92;0.60;;;16.00;99.90;;;;;;5093182;28;20048;-52
2023/05/20 08:57:12;;;;;;;3.35;0.60;;;16.00;99.90;;;;;;5095234;28;20071;-49
2023/05/20 08:59:47;;;;;;;1.35;0.63;;;16.10;99.90;;;;;;5095886;28;20092;-49
2023/05/20 09:02:13;;;;;;;2.03;0.70;;;16.10;99.90;;;;;;5096934;28;20399;-50
2023/05/20 09:04:39;;;;;;;1.75;0.50;;;16.10;99.90;;;;;;5096835;28;20105;-47
2023/05/20 09:07:05;;;;;;;2.42;0.73;;;16.10;99.90;;;;;;5096567;28;20043;-53
2023/05/20 09:09:33;;;;;;;1.35;0.43;;;16.20;99.90;;;;;;5096715;28;20048;-47
2023/05/20 09:12:01;;;;;;;2.08;0.55;;;16.20;99.90;;;;;;5096617;28;20131;-50
2023/05/20 09:14:28;;;;;;;3.08;0.70;;;16.20;99.90;;;;;;5096519;28;20459;-50
2023/05/20 09:16:54;;;;;;;3.22;0.80;;;16.30;99.90;;;;;;5096337;28;20047;-53
2023/05/20 09:19:23;;;;;;;1.02;0.50;;;16.30;99.90;;;;;;5096283;28;20376;-53
2023/05/20 09:21:52;;;;;;;1.52;0.70;;;16.40;99.90;;;;;;5096258;28;20048;-48
2023/05/20 09:24:25;;;;;;;1.05;0.45;;;16.40;99.90;;;;;;5096385;28;20044;-50
2023/05/20 09:26:51;;;;;;;1.30;0.57;;;16.40;99.90;;;;;;5096632;28;20392;-48
2023/05/20 09:29:20;;;;;;;2.45;0.75;;;16.50;99.90;;;;;;5096315;28;20040;-53
2023/05/20 09:31:46;;;;;;;1.42;0.50;;;16.50;99.90;;;;;;5096224;28;20578;-52
2023/05/20 09:34:12;;;;;;;1.35;0.50;;;16.50;99.90;;;;;;5096023;28;20047;-48
2023/05/20 09:36:39;;;;;;;0.88;0.43;;;16.50;99.90;;;;;;5096153;28;20494;-48
2023/05/20 09:39:08;;;;;;;1.42;0.63;;;16.60;99.90;;;;;;5096482;28;20530;-48
2023/05/20 09:42:10;;;;;;;1.45;0.60;;;16.60;99.90;;;;;;5096249;28;20519;-54
2023/05/20 09:44:36;;;;;;;2.08;0.70;;;16.70;99.90;;;;;;5085593;28;20048;-53
2023/05/20 09:47:02;;;;;;;;;;;16.80;99.90;;;;;;5096429;28;20055;-52
2023/05/20 09:49:29;;;;;;;1.90;0.80;;;16.70;99.90;;;;;;5095781;28;20375;-52
2023/05/20 09:51:56;;;;;;;1.40;0.60;;;16.80;99.90;;;;;;5095943;28;20094;-48
2023/05/20 09:54:24;;;;;;;1.65;0.68;;;16.80;99.90;;;;;;5095882;28;20086;-51
2023/05/20 09:56:50;;;;;;;1.23;0.63;;;16.90;99.90;;;;;;5095537;28;20566;-50
2023/05/20 09:59:17;;;;;;;2.72;0.70;;;17.00;99.90;;;;;;5095550;28;20605;-49
2023/05/20 10:01:44;;;;;;;2.00;0.73;;;17.00;99.90;;;;;;5095755;28;20074;-49
2023/05/20 10:04:12;;;;;;;1.15;0.52;;;17.10;99.90;;;;;;5095924;28;20055;-53
2023/05/20 10:07:04;;;;;;;2.72;0.70;;;17.10;99.90;;;;;;5095557;28;20046;-53
2023/05/20 10:09:48;;;;;;;3.20;1.15;;;17.10;99.90;;;;;;5093957;28;20044;-47
2023/05/20 10:13:12;;;;;;;3.47;0.93;;;17.10;99.90;;;;;;5095943;28;20107;-48
2023/05/20 10:16:02;;;;;;;2.03;0.90;;;17.20;99.90;;;;;;5033151;28;20053;-50
2023/05/20 10:18:30;;;;;;;4.53;0.80;;;17.20;99.90;;;;;;5095441;28;20051;-48
2023/05/20 10:20:56;;;;;;;2.33;0.73;;;17.30;99.90;;;;;;5095303;28;20052;-50
2023/05/20 10:23:30;;;;;;;2.20;0.90;;;17.20;99.90;;;;;;5095089;28;20055;-54
2023/05/20 10:26:04;;;;;;;3.15;0.95;;;17.20;99.90;;;;;;5095139;28;20050;-48
2023/05/20 10:28:32;;;;;;;2.92;0.82;;;17.30;99.90;;;;;;5095079;28;20044;-50
2023/05/20 10:30:59;;;;;;;1.95;0.90;;;17.30;99.90;;;;;;5094210;28;20051;-48
2023/05/20 10:33:28;;;;;;;;;;;17.30;99.90;;;;;;5095463;28;20051;-50
2023/05/20 10:35:57;;;;;;;2.38;0.90;;;17.40;99.90;;;;;;5095154;28;19920;-49
2023/05/20 10:38:23;;;;;;;2.15;0.82;;;17.40;99.90;;;;;;5094795;28;20129;-50
2023/05/20 10:40:49;;;;;;;2.63;0.90;;;17.30;99.90;;;;;;5095179;28;20078;-49
2023/05/20 10:43:35;;;;;;;2.53;0.80;;;17.30;99.90;;;;;;5093536;28;20479;-47
2023/05/20 10:46:01;;;;;;;2.80;0.80;;;17.30;99.90;;;;;;5094901;28;20056;-52
2023/05/20 10:48:30;;;;;;;2.15;0.88;;;17.40;99.90;;;;;;5094712;28;20051;-54
2023/05/20 10:51:04;;;;;;;2.33;1.08;;;17.40;99.90;;;;;;5094610;28;20406;-49
2023/05/20 10:53:43;;;;;;;2.20;0.80;;;17.40;99.90;;;;;;5094654;28;20480;-49
2023/05/20 10:56:20;;;;;;;1.38;0.70;;;17.50;99.90;;;;;;5094611;28;20098;-53
2023/05/20 10:58:47;;;;;;;2.10;0.85;;;17.50;99.90;;;;;;5094530;28;20063;-53
2023/05/20 11:01:15;;;;;;;1.75;0.80;;;17.50;99.90;;;;;;5094603;28;20101;-54
2023/05/20 11:03:42;;;;;;;3.20;1.10;;;17.50;99.90;;;;;;5094378;28;20044;-50
2023/05/20 11:06:16;;;;;;;4.88;0.95;;;17.60;99.90;;;;;;5094321;28;20105;-52
2023/05/20 11:08:43;;;;;;;2.55;0.93;;;17.70;99.90;;;;;;5093367;28;20052;-50
2023/05/20 11:11:10;;;;;;;2.40;1.08;;;17.80;99.90;;;;;;5094264;28;20048;-49
2023/05/20 11:13:36;;;;;;;3.97;1.13;;;17.90;99.90;;;;;;5094224;28;20127;-47
2023/05/20 11:16:03;;;;;;;2.55;0.90;;;18.00;99.90;;;;;;5094130;28;20090;-49
2023/05/20 11:18:29;;;;;;;3.75;1.25;;;18.10;99.90;;;;;;5094083;28;20052;-52
2023/05/20 11:20:58;;;;;;;2.53;0.70;;;18.20;99.90;;;;;;5093564;28;20079;-48
2023/05/20 11:23:26;;;;;;;4.70;1.15;;;18.40;99.90;;;;;;5094305;28;20067;-48
2023/05/20 11:25:53;;;;;;;2.28;1.02;;;18.40;99.90;;;;;;5094079;28;20044;-48
2023/05/20 11:28:20;;;;;;;2.72;1.25;;;18.40;99.90;;;;;;5094102;28;20048;-49
2023/05/20 11:30:47;;;;;;;4.05;1.50;;;18.40;99.90;;;;;;5092689;28;20454;-52
2023/05/20 11:33:16;;;;;;;2.97;0.90;;;18.20;99.90;;;;;;5092850;28;20498;-49
2023/05/20 11:35:52;;;;;;;3.05;1.20;;;18.00;99.90;;;;;;5093817;28;20479;-51
2023/05/20 11:38:19;;;;;;;5.65;1.55;;;17.90;99.90;;;;;;5093973;28;20044;-51
2023/05/20 11:40:53;;;;;;;3.40;1.05;;;17.90;99.90;;;;;;5094124;28;20093;-53
2023/05/20 11:43:20;;;;;;;5.82;1.45;;;18.00;99.90;;;;;;5092788;28;20040;-51
2023/05/20 11:45:52;;;;;;;3.55;1.08;;;17.90;99.90;;;;;;5093580;28;20514;-53
2023/05/20 11:48:19;;;;;;;3.92;1.40;;;17.80;99.90;;;;;;5093941;28;20044;-48
2023/05/20 11:50:46;;;;;;;3.90;1.83;;;17.70;99.90;;;;;;5093947;28;20402;-49
2023/05/20 11:53:17;;;;;;;4.80;1.50;;;17.80;99.90;;;;;;5093837;28;20051;-48
2023/05/20 11:55:54;;;;;;;2.72;1.17;;;18.00;99.90;;;;;;5093858;28;20052;-53
2023/05/20 11:58:29;;;;;;;4.13;1.85;;;18.20;99.90;;;;;;5092358;28;20040;-48
2023/05/20 12:00:55;;;;;;;4.20;1.60;;;18.20;99.90;;;;;;5093815;28;20101;-53
2023/05/20 12:03:21;;;;;;;3.45;1.23;;;18.10;99.90;;;;;;5092824;28;20048;-48
2023/05/20 12:05:47;;;;;;;4.40;1.38;;;18.20;99.90;;;;;;5093610;28;20060;-49
2023/05/20 12:08:13;;;;;;;3.05;1.70;;;18.30;99.90;;;;;;5092732;28;20113;-51
2023/05/20 12:10:39;;;;;;;2.67;1.30;;;18.50;99.90;;;;;;5093464;28;20051;-54
2023/05/20 12:13:10;;;;;;;2.65;1.35;;;18.50;99.90;;;;;;5093428;28;20411;-53
2023/05/20 12:15:36;;;;;;;3.20;1.10;;;18.50;99.90;;;;;;5093843;28;20457;-48
2023/05/20 12:18:02;;;;;;;3.20;1.20;;;18.50;99.90;;;;;;5092358;28;20040;-50
2023/05/20 12:20:29;;;;;;;2.92;1.10;;;18.60;99.90;;;;;;5093456;28;20044;-53
2023/05/20 12:22:55;;;;;;;4.85;1.77;;;18.70;99.90;;;;;;5093623;28;20044;-52
2023/05/20 12:25:20;;;;;;;3.72;1.55;;;18.70;99.90;;;;;;5093520;28;20633;-48
2023/05/20 12:27:47;;;;;;;3.72;1.35;;;18.60;99.90;;;;;;5093983;28;20044;-52
2023/05/20 12:30:20;;;;;;;4.38;1.63;;;18.70;99.90;;;;;;5093479;28;20047;-54
2023/05/20 12:32:46;;;;;;;4.75;1.83;;;18.80;99.90;;;;;;5095886;28;20127;-54
2023/05/20 12:35:13;;;;;;;3.10;1.63;;;18.80;99.90;;;;;;5097393;28;20048;-48
2023/05/20 12:37:40;;;;;;;3.45;1.65;;;18.80;99.90;;;;;;5097212;28;20077;-54
2023/05/20 12:40:07;;;;;;;2.80;1.50;;;18.80;99.90;;;;;;5097001;28;20056;-49
2023/05/20 12:42:40;;;;;;;4.28;1.60;;;18.80;99.90;;;;;;5097697;28;20135;-53
2023/05/20 12:45:07;;;;;;;5.30;1.48;;;18.80;99.90;;;;;;5097086;28;20426;-53
2023/05/20 12:47:33;;;;;;;4.25;1.55;;;18.80;99.90;;;;;;5097245;28;20499;-50